createdAt,value
2018-07-10T00:01:34.687Z,100658
2018-07-10T00:04:03.539Z,100649
2018-07-10T00:06:32.383Z,100650
2018-07-10T00:09:01.209Z,100640
2018-07-10T00:11:30.050Z,100641
2018-07-10T00:13:59.640Z,100651
2018-07-10T00:16:28.472Z,100640
2018-07-10T00:18:57.309Z,100638
2018-07-10T00:21:26.150Z,100637
2018-07-10T00:23:54.999Z,100634
2018-07-10T00:26:23.848Z,100629
2018-07-10T00:28:52.688Z,100628
2018-07-10T00:31:21.551Z,100633
2018-07-10T00:33:50.388Z,100638
2018-07-10T00:36:19.232Z,100633
2018-07-10T00:38:57.793Z,100634
2018-07-10T00:41:26.633Z,100640
2018-07-10T00:43:55.486Z,100628
2018-07-10T00:46:24.329Z,100630
2018-07-10T00:48:53.174Z,100629
2018-07-10T00:51:22.014Z,100628
2018-07-10T00:53:50.856Z,100625
2018-07-10T00:56:20.451Z,100622
2018-07-10T00:58:49.305Z,100618
2018-07-10T01:01:18.143Z,100624
2018-07-10T01:03:47.733Z,100623
2018-07-10T01:06:16.584Z,100616
2018-07-10T01:08:45.413Z,100610
2018-07-10T01:11:14.991Z,100618
2018-07-10T01:13:43.831Z,100619
2018-07-10T01:16:12.667Z,100612
2018-07-10T01:18:41.502Z,100610
2018-07-10T01:21:11.116Z,100613
2018-07-10T01:23:39.967Z,100604
2018-07-10T01:26:08.842Z,100601
2018-07-10T01:28:37.799Z,100604
2018-07-10T01:31:06.634Z,100597
2018-07-10T01:33:35.488Z,100605
2018-07-10T01:36:04.324Z,100597
2018-07-10T01:38:33.157Z,100594
2018-07-10T01:41:01.998Z,100592
2018-07-10T01:43:30.828Z,100592
2018-07-10T01:45:59.667Z,100591
2018-07-10T01:48:28.506Z,100600
2018-07-10T01:50:57.347Z,100583
2018-07-10T01:53:26.194Z,100586
2018-07-10T01:55:55.123Z,100591
2018-07-10T01:58:23.961Z,100593
2018-07-10T02:00:52.829Z,100595
2018-07-10T02:03:22.417Z,100590
2018-07-10T02:05:51.247Z,100580
2018-07-10T02:08:20.098Z,100578
2018-07-10T02:10:48.931Z,100576
2018-07-10T02:13:17.772Z,100564
2018-07-10T02:15:46.619Z,100580
2018-07-10T02:18:15.448Z,100561
2018-07-10T02:20:44.274Z,100560
2018-07-10T02:23:13.124Z,100556
2018-07-10T02:25:41.949Z,100553
2018-07-10T02:28:10.805Z,100560
2018-07-10T02:30:40.379Z,100555
2018-07-10T02:33:09.222Z,100560
2018-07-10T02:35:38.840Z,100554
2018-07-10T02:38:07.681Z,100545
2018-07-10T02:40:36.510Z,100550
2018-07-10T02:43:06.079Z,100550
2018-07-10T02:45:34.916Z,100548
2018-07-10T02:48:03.871Z,100539
2018-07-10T02:50:32.607Z,100549
2018-07-10T02:53:01.441Z,100543
2018-07-10T02:55:30.274Z,100542
2018-07-10T02:57:59.104Z,100538
2018-07-10T03:00:27.942Z,100538
2018-07-10T03:02:57.527Z,100530
2018-07-10T03:05:26.380Z,100524
2018-07-10T03:07:55.221Z,100532
2018-07-10T03:10:24.069Z,100520
2018-07-10T03:12:52.912Z,100530
2018-07-10T03:15:21.762Z,100527
2018-07-10T03:17:50.596Z,100544
2018-07-10T03:20:19.441Z,100526
2018-07-10T03:22:48.270Z,100527
2018-07-10T03:25:17.103Z,100535
2018-07-10T03:27:45.960Z,100523
2018-07-10T03:30:14.802Z,100535
2018-07-10T03:32:43.683Z,100527
2018-07-10T03:35:12.519Z,100530
2018-07-10T03:37:41.365Z,100534
2018-07-10T03:40:10.239Z,100528
2018-07-10T03:42:39.072Z,100536
2018-07-10T03:45:08.649Z,100536
2018-07-10T03:47:37.488Z,100535
2018-07-10T03:50:06.336Z,100536
2018-07-10T03:52:35.189Z,100540
2018-07-10T03:55:04.026Z,100535
2018-07-10T03:57:33.624Z,100533
2018-07-10T04:00:02.454Z,100540
2018-07-10T04:02:31.303Z,100545
2018-07-10T04:05:00.889Z,100541
2018-07-10T04:07:29.721Z,100534
2018-07-10T04:09:59.308Z,100541
2018-07-10T04:12:28.166Z,100533
2018-07-10T04:14:57.007Z,100546
2018-07-10T04:17:25.864Z,100540
2018-07-10T04:19:54.714Z,100537
2018-07-10T04:22:23.551Z,100546
2018-07-10T04:24:52.387Z,100546
2018-07-10T04:27:21.225Z,100542
2018-07-10T04:29:50.073Z,100537
2018-07-10T04:32:18.946Z,100543
2018-07-10T04:34:47.802Z,100542
2018-07-10T04:37:16.668Z,100537
2018-07-10T04:39:45.510Z,100543
2018-07-10T04:42:14.372Z,100543
2018-07-10T04:44:43.188Z,100560
2018-07-10T04:47:12.037Z,100546
2018-07-10T04:49:40.875Z,100553
2018-07-10T04:52:09.717Z,100543
2018-07-10T04:54:39.139Z,100539
2018-07-10T04:57:07.977Z,100536
2018-07-10T04:59:36.830Z,100541
2018-07-10T05:02:05.672Z,100526
2018-07-10T05:04:34.510Z,100532
2018-07-10T05:07:03.361Z,100525
2018-07-10T05:09:32.783Z,100526
2018-07-10T05:12:02.541Z,100527
2018-07-10T05:14:31.247Z,100539
2018-07-10T05:17:00.059Z,100536
2018-07-10T05:19:28.915Z,100536
2018-07-10T05:21:57.790Z,100534
2018-07-10T05:24:26.645Z,100534
2018-07-10T05:26:55.495Z,100540
2018-07-10T05:29:24.337Z,100538
2018-07-10T05:31:53.171Z,100538
2018-07-10T05:34:22.011Z,100531
2018-07-10T05:36:50.858Z,100537
2018-07-10T05:39:19.697Z,100525
2018-07-10T05:41:48.539Z,100527
2018-07-10T05:44:17.416Z,100538
2018-07-10T05:46:46.251Z,100543
2018-07-10T05:49:15.094Z,100540
2018-07-10T05:51:43.948Z,100533
2018-07-10T05:54:12.779Z,100535
2018-07-10T05:56:41.612Z,100532
2018-07-10T05:59:10.454Z,100525
2018-07-10T06:01:39.300Z,100539
2018-07-10T06:04:08.126Z,100536
2018-07-10T06:06:36.974Z,100539
2018-07-10T06:09:05.820Z,100542
2018-07-10T06:11:34.697Z,100543
2018-07-10T06:14:03.600Z,100548
2018-07-10T06:16:32.387Z,100550
2018-07-10T06:19:01.222Z,100555
2018-07-10T06:21:30.066Z,100551
2018-07-10T06:23:58.904Z,100541
2018-07-10T06:26:27.738Z,100549
2018-07-10T06:28:56.587Z,100551
2018-07-10T06:31:25.430Z,100565
2018-07-10T06:33:54.273Z,100558
2018-07-10T06:36:23.129Z,100561
2018-07-10T06:38:51.976Z,100570
2018-07-10T06:41:20.820Z,100570
2018-07-10T06:43:49.660Z,100571
2018-07-10T06:46:18.500Z,100571
2018-07-10T06:48:47.344Z,100572
2018-07-10T06:51:16.204Z,100577
2018-07-10T06:53:45.743Z,100586
2018-07-10T06:56:14.583Z,100576
2018-07-10T06:58:43.420Z,100573
2018-07-10T07:01:12.273Z,100588
2018-07-10T07:03:41.114Z,100577
2018-07-10T07:06:09.946Z,100583
2018-07-10T07:08:38.797Z,100583
2018-07-10T07:11:07.633Z,100576
2018-07-10T07:13:37.234Z,100572
2018-07-10T07:16:06.820Z,100571
2018-07-10T07:18:35.661Z,100569
2018-07-10T07:21:04.511Z,100574
2018-07-10T07:23:33.396Z,100579
2018-07-10T07:26:02.360Z,100587
2018-07-10T07:28:31.200Z,100575
2018-07-10T07:31:00.801Z,100580
2018-07-10T07:33:29.646Z,100573
2018-07-10T07:35:58.480Z,100577
2018-07-10T07:38:27.374Z,100582
2018-07-10T07:40:56.193Z,100581
2018-07-10T07:43:25.067Z,100589
2018-07-10T07:45:53.903Z,100594
2018-07-10T07:48:22.741Z,100597
2018-07-10T07:50:51.587Z,100593
2018-07-10T07:53:20.424Z,100597
2018-07-10T07:55:49.267Z,100593
2018-07-10T07:58:18.160Z,100592
2018-07-10T08:00:46.946Z,100595
2018-07-10T08:03:16.527Z,100605
2018-07-10T08:05:45.370Z,100596
2018-07-10T08:08:14.218Z,100593
2018-07-10T08:10:43.059Z,100590
2018-07-10T08:13:12.662Z,100596
2018-07-10T08:15:41.504Z,100592
2018-07-10T08:18:10.359Z,100598
2018-07-10T08:20:39.933Z,100598
2018-07-10T08:23:08.810Z,100604
2018-07-10T08:25:37.674Z,100608
2018-07-10T08:28:06.523Z,100605
2018-07-10T08:30:36.108Z,100603
2018-07-10T08:33:04.957Z,100593
2018-07-10T08:35:33.796Z,100598
2018-07-10T08:38:02.636Z,100596
2018-07-10T08:40:31.533Z,100601
2018-07-10T08:43:00.418Z,100591
2018-07-10T08:45:29.260Z,100589
2018-07-10T08:47:58.119Z,100599
2018-07-10T08:50:26.972Z,100594
2018-07-10T08:52:56.545Z,100599
2018-07-10T08:55:25.385Z,100589
2018-07-10T08:57:54.242Z,100600
2018-07-10T09:00:23.086Z,100595
2018-07-10T09:02:51.936Z,100593
2018-07-10T09:05:20.776Z,100582
2018-07-10T09:07:49.629Z,100592
2018-07-10T09:10:18.522Z,100588
2018-07-10T09:12:47.330Z,100597
2018-07-10T09:15:16.164Z,100593
2018-07-10T09:17:45.018Z,100591
2018-07-10T09:20:13.847Z,100586
2018-07-10T09:22:42.686Z,100589
2018-07-10T09:25:11.587Z,100586
2018-07-10T09:27:40.426Z,100594
2018-07-10T09:30:09.273Z,100587
2018-07-10T09:32:38.115Z,100579
2018-07-10T09:35:06.961Z,100582
2018-07-10T09:37:35.807Z,100574
2018-07-10T09:40:04.662Z,100581
2018-07-10T09:42:34.278Z,100579
2018-07-10T09:45:03.112Z,100571
2018-07-10T09:47:31.961Z,100565
2018-07-10T09:50:04.134Z,100563
2018-07-10T09:52:32.986Z,100570
2018-07-10T09:55:01.890Z,100563
2018-07-10T09:57:31.432Z,100558
2018-07-10T10:00:00.271Z,100557
2018-07-10T10:02:29.182Z,100556
2018-07-10T10:04:58.065Z,100552
2018-07-10T10:07:26.870Z,100553
2018-07-10T10:09:55.722Z,100544
2018-07-10T10:12:24.565Z,100541
2018-07-10T10:14:54.162Z,100543
2018-07-10T10:17:23.011Z,100544
2018-07-10T10:19:51.850Z,100538
2018-07-10T10:22:20.688Z,100541
2018-07-10T10:24:49.548Z,100536
2018-07-10T10:27:18.409Z,100531
2018-07-10T10:29:47.251Z,100521
2018-07-10T10:32:16.125Z,100521
2018-07-10T10:34:45.734Z,100524
2018-07-10T10:37:14.583Z,100528
2018-07-10T10:39:43.484Z,100519
2018-07-10T10:42:12.320Z,100530
2018-07-10T10:44:41.177Z,100532
2018-07-10T10:47:10.088Z,100534
2018-07-10T10:49:38.868Z,100530
2018-07-10T10:52:07.765Z,100527
2018-07-10T10:54:36.604Z,100529
2018-07-10T10:57:05.444Z,100535
2018-07-10T10:59:35.072Z,100533
2018-07-10T11:02:03.914Z,100528
2018-07-10T11:04:32.770Z,100531
2018-07-10T11:07:01.661Z,100536
2018-07-10T11:09:30.498Z,100533
2018-07-10T11:12:00.111Z,100530
2018-07-10T11:14:29.718Z,100523
2018-07-10T11:16:58.681Z,100520
2018-07-10T11:19:27.407Z,100528
2018-07-10T11:21:58.727Z,100515
2018-07-10T11:24:27.559Z,100526
2018-07-10T11:26:56.415Z,100520
2018-07-10T11:29:25.262Z,100520
2018-07-10T11:31:54.111Z,100530
2018-07-10T11:34:22.949Z,100519
2018-07-10T11:36:51.797Z,100519
2018-07-10T11:39:20.674Z,100521
2018-07-10T11:41:49.490Z,100523
2018-07-10T11:44:18.336Z,100522
2018-07-10T11:46:47.942Z,100512
2018-07-10T11:49:16.783Z,100507
2018-07-10T11:51:45.637Z,100516
2018-07-10T11:54:14.468Z,100509
2018-07-10T11:56:43.364Z,100511
2018-07-10T11:59:12.230Z,100504
2018-07-10T12:01:41.846Z,100502
2018-07-10T12:04:11.437Z,100505
2018-07-10T12:06:40.272Z,100504
2018-07-10T12:09:09.113Z,100503
2018-07-10T12:11:37.955Z,100510
2018-07-10T12:14:06.795Z,100502
2018-07-10T12:16:35.642Z,100501
2018-07-10T12:19:04.502Z,100498
2018-07-10T12:21:34.070Z,100496
2018-07-10T12:24:02.922Z,100493
2018-07-10T12:26:31.767Z,100486
2018-07-10T12:29:00.630Z,100480
2018-07-10T12:31:29.618Z,100484
2018-07-10T12:33:59.127Z,100486
2018-07-10T12:36:27.968Z,100484
2018-07-10T12:38:56.798Z,100487
2018-07-10T12:41:25.638Z,100477
2018-07-10T12:43:54.497Z,100481
2018-07-10T12:46:23.407Z,100488
2018-07-10T12:48:52.256Z,100478
2018-07-10T12:51:21.085Z,100484
2018-07-10T12:53:49.958Z,100482
2018-07-10T12:56:18.857Z,100479
2018-07-10T12:58:48.423Z,100477
2018-07-10T13:01:17.270Z,100476
2018-07-10T13:03:46.113Z,100485
2018-07-10T13:06:14.949Z,100487
2018-07-10T13:08:43.828Z,100489
2018-07-10T13:11:12.628Z,100488
2018-07-10T13:13:41.473Z,100492
2018-07-10T13:16:10.299Z,100489
2018-07-10T13:18:39.142Z,100493
2018-07-10T13:21:07.975Z,100499
2018-07-10T13:23:36.816Z,100492
2018-07-10T13:26:05.658Z,100492
2018-07-10T13:28:34.511Z,100495
2018-07-10T13:31:03.359Z,100493
2018-07-10T13:33:32.215Z,100494
2018-07-10T13:36:01.080Z,100502
2018-07-10T13:38:29.931Z,100490
2018-07-10T13:40:58.774Z,100489
2018-07-10T13:43:27.611Z,100494
2018-07-10T13:45:57.191Z,100494
2018-07-10T13:48:26.034Z,100502
2018-07-10T13:50:54.870Z,100492
2018-07-10T13:53:23.699Z,100505
2018-07-10T13:55:53.289Z,100495
2018-07-10T13:58:22.151Z,100505
2018-07-10T14:00:50.983Z,100494
2018-07-10T14:03:19.836Z,100491
2018-07-10T14:05:48.677Z,100488
2018-07-10T14:08:17.523Z,100477
2018-07-10T14:10:46.381Z,100496
2018-07-10T14:13:15.233Z,100486
2018-07-10T14:15:44.854Z,100473
2018-07-10T14:18:13.702Z,100481
2018-07-10T14:20:42.537Z,100491
2018-07-10T14:23:11.384Z,100483
2018-07-10T14:25:40.231Z,100535
2018-07-10T14:28:09.069Z,100481
2018-07-10T14:30:37.932Z,100482
2018-07-10T14:33:06.772Z,100477
2018-07-10T14:35:36.359Z,100479
2018-07-10T14:38:05.942Z,100477
2018-07-10T14:40:34.835Z,100476
2018-07-10T14:43:03.673Z,100471
2018-07-10T14:45:32.517Z,100467
2018-07-10T14:48:01.363Z,100472
2018-07-10T14:50:30.207Z,100475
2018-07-10T14:52:59.100Z,100467
2018-07-10T14:55:27.898Z,100469
2018-07-10T14:57:56.775Z,100466
2018-07-10T15:00:25.624Z,100455
2018-07-10T15:02:54.461Z,100458
2018-07-10T15:05:23.315Z,100465
2018-07-10T15:07:52.152Z,100453
2018-07-10T15:10:20.999Z,100441
2018-07-10T15:12:49.843Z,100456
2018-07-10T15:15:18.810Z,100448
2018-07-10T15:17:49.335Z,100440
2018-07-10T15:20:18.167Z,100434
2018-07-10T15:22:47.020Z,100437
2018-07-10T15:25:15.877Z,100443
2018-07-10T15:27:44.736Z,100431
2018-07-10T15:30:13.572Z,100433
2018-07-10T15:32:42.411Z,100435
2018-07-10T15:35:11.253Z,100433
2018-07-10T15:37:40.074Z,100435
2018-07-10T15:40:08.945Z,100440
2018-07-10T15:42:37.780Z,100439
2018-07-10T15:45:06.622Z,100447
2018-07-10T15:47:36.234Z,100444
2018-07-10T15:50:05.807Z,100448
2018-07-10T15:52:34.669Z,100442
2018-07-10T15:55:03.512Z,100440
2018-07-10T15:57:32.365Z,100444
2018-07-10T16:00:01.196Z,100440
2018-07-10T16:02:30.811Z,100440
2018-07-10T16:04:59.683Z,100444
2018-07-10T16:07:28.554Z,100440
2018-07-10T16:09:57.456Z,100436
2018-07-10T16:12:26.304Z,100446
2018-07-10T16:14:55.147Z,100436
2018-07-10T16:17:24.746Z,100430
2018-07-10T16:19:53.618Z,100438
2018-07-10T16:22:22.448Z,100436
2018-07-10T16:24:51.298Z,100438
2018-07-10T16:27:20.129Z,100440
2018-07-10T16:29:48.993Z,100428
2018-07-10T16:32:18.574Z,100424
2018-07-10T16:34:47.420Z,100426
2018-07-10T16:37:16.289Z,100426
2018-07-10T16:39:45.874Z,100429
2018-07-10T16:42:18.662Z,100423
2018-07-10T16:44:48.268Z,100427
2018-07-10T16:47:17.105Z,100427
2018-07-10T16:49:45.956Z,100423
2018-07-10T16:52:15.551Z,100423
2018-07-10T16:54:44.398Z,100427
2018-07-10T16:57:13.242Z,100422
2018-07-10T16:59:42.091Z,100421
2018-07-10T17:02:11.013Z,100419
2018-07-10T17:04:39.836Z,100414
2018-07-10T17:07:08.666Z,100413
2018-07-10T17:09:37.602Z,100414
2018-07-10T17:12:06.359Z,100407
2018-07-10T17:14:35.198Z,100406
2018-07-10T17:17:04.057Z,100407
2018-07-10T17:19:32.904Z,100410
2018-07-10T17:22:01.766Z,100409
2018-07-10T17:24:30.610Z,100404
2018-07-10T17:26:59.455Z,100416
2018-07-10T17:29:28.302Z,100407
2018-07-10T17:31:57.151Z,100412
2018-07-10T17:34:25.987Z,100408
2018-07-10T17:36:54.827Z,100412
2018-07-10T17:39:23.666Z,100406
2018-07-10T17:41:52.590Z,100407
2018-07-10T17:44:21.400Z,100406
2018-07-10T17:46:50.958Z,100408
2018-07-10T17:49:20.566Z,100412
2018-07-10T17:51:50.154Z,100411
2018-07-10T17:54:20.001Z,100406
2018-07-10T17:56:48.580Z,100409
2018-07-10T17:59:18.804Z,100407
2018-07-10T18:01:47.651Z,100410
2018-07-10T18:04:16.779Z,100414
2018-07-10T18:06:46.816Z,100412
2018-07-10T18:09:15.858Z,100406
2018-07-10T18:11:44.332Z,100412
2018-07-10T18:14:13.170Z,100407
2018-07-10T18:16:42.019Z,100407
2018-07-10T18:19:11.451Z,100414
2018-07-10T18:21:40.288Z,100402
2018-07-10T18:24:09.129Z,100397
2018-07-10T18:26:38.708Z,100401
2018-07-10T18:29:07.561Z,100411
2018-07-10T18:31:36.411Z,100394
2018-07-10T18:34:05.253Z,100405
2018-07-10T18:36:34.107Z,100403
2018-07-10T18:39:02.931Z,100404
2018-07-10T18:41:31.769Z,100413
2018-07-10T18:44:01.375Z,100414
2018-07-10T18:46:30.245Z,100412
2018-07-10T18:48:59.086Z,100411
2018-07-10T18:51:27.929Z,100408
2018-07-10T18:53:56.833Z,100417
2018-07-10T18:56:25.667Z,100417
2018-07-10T18:58:54.536Z,100410
2018-07-10T19:01:23.353Z,100413
2018-07-10T19:03:52.968Z,100415
2018-07-10T19:06:22.559Z,100411
2018-07-10T19:08:51.462Z,100421
2018-07-10T19:11:20.257Z,100412
2018-07-10T19:13:49.097Z,100423
2018-07-10T19:16:17.939Z,100410
2018-07-10T19:18:46.780Z,100417
2018-07-10T19:21:15.614Z,100416
2018-07-10T19:23:45.196Z,100413
2018-07-10T19:26:14.045Z,100405
2018-07-10T19:28:42.887Z,100415
2018-07-10T19:31:11.784Z,100407
2018-07-10T19:33:41.253Z,100412
2018-07-10T19:36:10.094Z,100418
2018-07-10T19:38:38.980Z,100414
2018-07-10T19:41:07.816Z,100428
2018-07-10T19:43:36.658Z,100410
2018-07-10T19:46:06.356Z,100417
2018-07-10T19:48:35.095Z,100416
2018-07-10T19:51:03.941Z,100426
2018-07-10T19:53:33.528Z,100423
2018-07-10T19:56:02.378Z,100432
2018-07-10T19:58:31.220Z,100433
2018-07-10T20:01:00.072Z,100434
2018-07-10T20:03:28.935Z,100428
2018-07-10T20:05:57.834Z,100440
2018-07-10T20:08:27.200Z,100447
2018-07-10T20:10:56.034Z,100444
2018-07-10T20:13:24.882Z,100442
2018-07-10T20:15:53.728Z,100440
2018-07-10T20:18:22.576Z,100443
2018-07-10T20:20:51.418Z,100444
2018-07-10T20:23:20.299Z,100442
2018-07-10T20:25:49.107Z,100441
2018-07-10T20:28:17.954Z,100453
2018-07-10T20:30:46.802Z,100446
2018-07-10T20:33:16.492Z,100447
2018-07-10T20:35:45.265Z,100458
2018-07-10T20:38:14.109Z,100450
2018-07-10T20:40:43.690Z,100449
2018-07-10T20:43:12.535Z,100449
2018-07-10T20:45:41.426Z,100453
2018-07-10T20:48:10.228Z,100442
2018-07-10T20:50:39.088Z,100436
2018-07-10T20:53:08.656Z,100442
2018-07-10T20:55:37.644Z,100444
2018-07-10T20:58:06.366Z,100438
2018-07-10T21:00:35.241Z,100442
2018-07-10T21:03:04.057Z,100443
2018-07-10T21:05:32.899Z,100442
2018-07-10T21:08:01.781Z,100453
2018-07-10T21:10:31.332Z,100450
2018-07-10T21:13:00.177Z,100451
2018-07-10T21:15:29.020Z,100447
2018-07-10T21:17:57.871Z,100446
2018-07-10T21:20:26.714Z,100439
2018-07-10T21:22:55.556Z,100443
2018-07-10T21:25:24.393Z,100442
2018-07-10T21:27:53.233Z,100443
2018-07-10T21:30:22.076Z,100443
2018-07-10T21:32:50.921Z,100439
2018-07-10T21:35:19.812Z,100441
2018-07-10T21:37:48.629Z,100430
2018-07-10T21:40:18.213Z,100427
2018-07-10T21:42:47.073Z,100423
2018-07-10T21:45:15.905Z,100415
2018-07-10T21:47:44.748Z,100427
2018-07-10T21:50:13.588Z,100431
2018-07-10T21:52:42.587Z,100424
2018-07-10T21:55:11.398Z,100432
2018-07-10T21:57:40.250Z,100427
2018-07-10T22:00:09.091Z,100419
2018-07-10T22:02:37.946Z,100420
2018-07-10T22:05:06.791Z,100428
2018-07-10T22:07:35.624Z,100419
2018-07-10T22:10:04.457Z,100423
2018-07-10T22:12:33.295Z,100417
2018-07-10T22:15:02.123Z,100416
2018-07-10T22:17:30.961Z,100428
2018-07-10T22:20:00.551Z,100422
2018-07-10T22:22:29.468Z,100419
2018-07-10T22:24:58.359Z,100385
2018-07-10T22:27:27.229Z,100431
2018-07-10T22:29:56.060Z,100428
2018-07-10T22:32:25.648Z,100421
2018-07-10T22:34:54.520Z,100423
2018-07-10T22:37:23.337Z,100417
2018-07-10T22:39:52.197Z,100424
2018-07-10T22:42:21.028Z,100413
2018-07-10T22:44:49.870Z,100418
2018-07-10T22:47:18.712Z,100410
2018-07-10T22:49:47.560Z,100414
2018-07-10T22:52:16.422Z,100402
2018-07-10T22:54:45.261Z,100412
2018-07-10T22:57:14.878Z,100407
2018-07-10T22:59:43.711Z,100407
2018-07-10T23:02:12.543Z,100406
2018-07-10T23:04:41.380Z,100406
2018-07-10T23:07:10.219Z,100408
2018-07-10T23:09:39.092Z,100399
2018-07-10T23:12:07.943Z,100393
2018-07-10T23:14:36.779Z,100398
2018-07-10T23:17:05.628Z,100388
2018-07-10T23:19:34.635Z,100398
2018-07-10T23:22:03.467Z,100390
2018-07-10T23:24:31.549Z,100387
2018-07-10T23:27:00.427Z,100386
2018-07-10T23:29:30.012Z,100383
2018-07-10T23:31:58.848Z,100381
2018-07-10T23:34:27.699Z,100383
2018-07-10T23:36:56.552Z,100379
2018-07-10T23:39:25.432Z,100374
2018-07-10T23:41:54.273Z,100376
2018-07-10T23:44:23.858Z,100375
2018-07-10T23:46:52.722Z,100370
2018-07-10T23:49:21.541Z,100362
2018-07-10T23:51:50.370Z,100383
2018-07-10T23:54:19.962Z,100371
2018-07-10T23:56:48.838Z,100363
2018-07-10T23:59:17.656Z,100360
